sensor_id;sensor_type;location;lat;lon;timestamp;noise_LAeq;noise_LA_min;noise_LA_max;noise_LA01;noise_LA95
67298;Laerm;65443;51.436;5.978;2023-04-10T00:00:06;57.86;27.97;75.52;;
67298;Laerm;65443;51.436;5.978;2023-04-10T00:00:17;57.69;27.47;75.61;;
67298;Laerm;65443;51.436;5.978;2023-04-10T00:00:28;34.82;27.59;52.13;;
67298;Laerm;65443;51.436;5.978;2023-04-10T00:00:40;28.86;27.66;32.72;;
67298;Laerm;65443;51.436;5.978;2023-04-10T00:00:52;28.87;27.81;30.21;;
67298;Laerm;65443;51.436;5.978;2023-04-10T00:01:06;28.90;27.55;32.32;;
67298;Laerm;65443;51.436;5.978;2023-04-10T00:01:16;28.86;27.44;33.00;;
67298;Laerm;65443;51.436;5.978;2023-04-10T00:01:27;28.77;27.57;29.71;;
67298;Laerm;65443;51.436;5.978;2023-04-10T00:01:44;28.85;27.66;30.04;;
67298;Laerm;65443;51.436;5.978;2023-04-10T00:01:57;28.81;27.83;29.72;;
67298;Laerm;65443;51.436;5.978;2023-04-10T00:02:07;28.71;27.61;29.81;;
67298;Laerm;65443;51.436;5.978;2023-04-10T00:02:17;28.65;27.52;29.90;;
67298;Laerm;65443;51.436;5.978;2023-04-10T00:02:28;28.64;27.72;32.32;;
67298;Laerm;65443;51.436;5.978;2023-04-10T00:02:38;28.60;27.38;29.86;;
67298;Laerm;65443;51.436;5.978;2023-04-10T00:02:48;28.64;27.58;29.67;;
67298;Laerm;65443;51.436;5.978;2023-04-10T00:02:59;28.70;27.61;29.64;;
67298;Laerm;65443;51.436;5.978;2023-04-10T00:03:12;28.72;27.53;29.74;;
67298;Laerm;65443;51.436;5.978;2023-04-10T00:03:23;28.68;27.58;29.76;;
67298;Laerm;65443;51.436;5.978;2023-04-10T00:03:34;28.78;27.68;30.00;;
67298;Laerm;65443;51.436;5.978;2023-04-10T00:03:44;28.77;27.87;29.84;;
67298;Laerm;65443;51.436;5.978;2023-04-10T00:03:54;28.87;27.76;29.92;;
67298;Laerm;65443;51.436;5.978;2023-04-10T00:04:05;28.83;27.43;29.88;;
67298;Laerm;65443;51.436;5.978;2023-04-10T00:04:15;30.18;28.20;36.13;;
67298;Laerm;65443;51.436;5.978;2023-04-10T00:04:25;34.24;29.55;47.59;;
67298;Laerm;65443;51.436;5.978;2023-04-10T00:04:36;30.98;28.87;32.65;;
67298;Laerm;65443;51.436;5.978;2023-04-10T00:04:46;30.41;28.92;32.39;;
67298;Laerm;65443;51.436;5.978;2023-04-10T00:04:56;29.97;28.42;31.47;;
67298;Laerm;65443;51.436;5.978;2023-04-10T00:05:06;29.89;27.67;32.15;;
67298;Laerm;65443;51.436;5.978;2023-04-10T00:05:17;30.08;28.49;31.42;;
67298;Laerm;65443;51.436;5.978;2023-04-10T00:05:27;29.77;28.44;31.20;;
67298;Laerm;65443;51.436;5.978;2023-04-10T00:05:37;29.86;28.27;32.26;;
67298;Laerm;65443;51.436;5.978;2023-04-10T00:05:48;29.49;28.29;30.75;;
67298;Laerm;65443;51.436;5.978;2023-04-10T00:05:58;29.18;27.71;30.59;;
67298;Laerm;65443;51.436;5.978;2023-04-10T00:06:08;28.96;27.46;30.10;;
67298;Laerm;65443;51.436;5.978;2023-04-10T00:06:19;28.96;27.67;30.13;;
67298;Laerm;65443;51.436;5.978;2023-04-10T00:06:29;28.83;27.68;29.84;;
67298;Laerm;65443;51.436;5.978;2023-04-10T00:06:40;28.91;27.77;30.14;;
67298;Laerm;65443;51.436;5.978;2023-04-10T00:06:51;29.05;27.85;30.79;;
67298;Laerm;65443;51.436;5.978;2023-04-10T00:07:01;29.11;28.12;30.16;;
67298;Laerm;65443;51.436;5.978;2023-04-10T00:07:12;29.18;28.03;30.24;;
67298;Laerm;65443;51.436;5.978;2023-04-10T00:07:23;28.97;27.58;30.21;;
67298;Laerm;65443;51.436;5.978;2023-04-10T00:07:33;28.77;27.56;30.06;;
67298;Laerm;65443;51.436;5.978;2023-04-10T00:07:44;28.97;27.90;30.26;;
67298;Laerm;65443;51.436;5.978;2023-04-10T00:07:54;28.86;27.55;29.97;;
67298;Laerm;65443;51.436;5.978;2023-04-10T00:08:05;28.81;27.69;29.72;;
67298;Laerm;65443;51.436;5.978;2023-04-10T00:08:15;28.76;27.65;30.00;;
67298;Laerm;65443;51.436;5.978;2023-04-10T00:08:25;28.73;27.47;30.06;;
67298;Laerm;65443;51.436;5.978;2023-04-10T00:08:36;28.76;27.35;29.85;;
67298;Laerm;65443;51.436;5.978;2023-04-10T00:08:46;28.65;27.78;29.82;;
67298;Laerm;65443;51.436;5.978;2023-04-10T00:08:57;28.74;27.67;29.63;;
67298;Laerm;65443;51.436;5.978;2023-04-10T00:09:07;28.68;27.21;29.85;;
67298;Laerm;65443;51.436;5.978;2023-04-10T00:09:18;28.67;27.69;29.65;;
67298;Laerm;65443;51.436;5.978;2023-04-10T00:09:29;28.71;27.34;30.44;;
67298;Laerm;65443;51.436;5.978;2023-04-10T00:09:39;28.73;27.58;29.80;;
67298;Laerm;65443;51.436;5.978;2023-04-10T00:09:49;28.87;27.64;30.55;;
67298;Laerm;65443;51.436;5.978;2023-04-10T00:10:00;28.74;27.60;30.39;;
67298;Laerm;65443;51.436;5.978;2023-04-10T00:10:10;28.62;27.54;29.77;;
67298;Laerm;65443;51.436;5.978;2023-04-10T00:10:20;28.66;27.57;29.77;;
67298;Laerm;65443;51.436;5.978;2023-04-10T00:10:31;28.67;27.70;29.65;;
67298;Laerm;65443;51.436;5.978;2023-04-10T00:10:42;28.85;27.92;32.57;;
67298;Laerm;65443;51.436;5.978;2023-04-10T00:10:52;28.71;27.38;29.72;;
67298;Laerm;65443;51.436;5.978;2023-04-10T00:11:03;28.77;27.65;29.84;;
67298;Laerm;65443;51.436;5.978;2023-04-10T00:11:14;28.89;27.63;29.85;;
67298;Laerm;65443;51.436;5.978;2023-04-10T00:11:24;29.16;28.13;30.26;;
67298;Laerm;65443;51.436;5.978;2023-04-10T00:11:35;29.08;28.03;30.28;;
67298;Laerm;65443;51.436;5.978;2023-04-10T00:11:45;28.68;27.50;30.07;;
67298;Laerm;65443;51.436;5.978;2023-04-10T00:11:56;28.65;27.57;29.75;;
67298;Laerm;65443;51.436;5.978;2023-04-10T00:12:06;28.64;27.61;29.62;;
67298;Laerm;65443;51.436;5.978;2023-04-10T00:12:16;28.84;27.89;29.97;;
67298;Laerm;65443;51.436;5.978;2023-04-10T00:12:27;28.87;27.62;30.07;;
67298;Laerm;65443;51.436;5.978;2023-04-10T00:12:38;28.80;27.42;29.98;;
67298;Laerm;65443;51.436;5.978;2023-04-10T00:12:48;28.78;27.58;29.80;;
67298;Laerm;65443;51.436;5.978;2023-04-10T00:13:00;28.68;27.56;30.02;;
67298;Laerm;65443;51.436;5.978;2023-04-10T00:13:13;28.67;27.71;30.01;;
67298;Laerm;65443;51.436;5.978;2023-04-10T00:13:23;28.91;27.74;30.02;;
67298;Laerm;65443;51.436;5.978;2023-04-10T00:13:33;29.22;28.02;30.13;;
67298;Laerm;65443;51.436;5.978;2023-04-10T00:13:44;29.11;27.52;30.14;;
67298;Laerm;65443;51.436;5.978;2023-04-10T00:13:54;28.54;27.52;29.51;;
67298;Laerm;65443;51.436;5.978;2023-04-10T00:14:04;32.15;27.46;48.83;;
67298;Laerm;65443;51.436;5.978;2023-04-10T00:14:15;28.78;27.50;30.96;;
67298;Laerm;65443;51.436;5.978;2023-04-10T00:14:32;29.41;27.46;45.98;;
67298;Laerm;65443;51.436;5.978;2023-04-10T00:14:42;28.71;27.64;29.92;;
67298;Laerm;65443;51.436;5.978;2023-04-10T00:14:53;28.72;27.28;30.78;;
67298;Laerm;65443;51.436;5.978;2023-04-10T00:15:03;28.68;27.43;29.88;;
67298;Laerm;65443;51.436;5.978;2023-04-10T00:15:14;28.77;27.46;30.79;;
67298;Laerm;65443;51.436;5.978;2023-04-10T00:15:24;28.70;27.67;29.79;;
67298;Laerm;65443;51.436;5.978;2023-04-10T00:15:35;28.73;27.57;29.86;;
67298;Laerm;65443;51.436;5.978;2023-04-10T00:15:46;28.73;27.46;30.04;;
67298;Laerm;65443;51.436;5.978;2023-04-10T00:15:56;28.77;27.56;30.02;;
67298;Laerm;65443;51.436;5.978;2023-04-10T00:16:07;28.90;27.73;29.90;;
67298;Laerm;65443;51.436;5.978;2023-04-10T00:16:17;28.86;27.70;30.16;;
67298;Laerm;65443;51.436;5.978;2023-04-10T00:16:28;28.83;27.47;29.79;;
67298;Laerm;65443;51.436;5.978;2023-04-10T00:16:38;28.80;27.80;29.94;;
67298;Laerm;65443;51.436;5.978;2023-04-10T00:16:49;28.77;27.49;29.89;;
67298;Laerm;65443;51.436;5.978;2023-04-10T00:16:59;28.77;27.49;30.19;;
67298;Laerm;65443;51.436;5.978;2023-04-10T00:17:09;29.05;27.86;30.26;;
67298;Laerm;65443;51.436;5.978;2023-04-10T00:17:20;29.13;27.92;30.28;;
67298;Laerm;65443;51.436;5.978;2023-04-10T00:17:30;28.89;27.73;30.04;;
67298;Laerm;65443;51.436;5.978;2023-04-10T00:17:40;28.93;27.87;30.14;;
67298;Laerm;65443;51.436;5.978;2023-04-10T00:17:51;28.87;27.83;29.93;;
67298;Laerm;65443;51.436;5.978;2023-04-10T00:18:04;28.68;27.50;29.89;;
67298;Laerm;65443;51.436;5.978;2023-04-10T00:18:14;28.62;27.30;29.78;;
67298;Laerm;65443;51.436;5.978;2023-04-10T00:18:24;28.71;27.52;29.66;;
67298;Laerm;65443;51.436;5.978;2023-04-10T00:18:35;28.63;27.55;29.68;;
67298;Laerm;65443;51.436;5.978;2023-04-10T00:18:45;28.68;27.05;29.74;;
67298;Laerm;65443;51.436;5.978;2023-04-10T00:18:56;28.80;27.76;30.05;;
67298;Laerm;65443;51.436;5.978;2023-04-10T00:19:06;28.75;27.56;32.32;;
67298;Laerm;65443;51.436;5.978;2023-04-10T00:19:17;28.70;27.46;29.86;;
67298;Laerm;65443;51.436;5.978;2023-04-10T00:19:27;28.78;27.75;30.00;;
67298;Laerm;65443;51.436;5.978;2023-04-10T00:19:38;28.88;27.82;29.87;;
67298;Laerm;65443;51.436;5.978;2023-04-10T00:19:48;28.76;27.69;29.79;;
67298;Laerm;65443;51.436;5.978;2023-04-10T00:19:58;28.67;27.38;29.66;;
67298;Laerm;65443;51.436;5.978;2023-04-10T00:20:09;28.62;27.35;29.56;;
67298;Laerm;65443;51.436;5.978;2023-04-10T00:20:20;28.58;27.35;29.66;;
67298;Laerm;65443;51.436;5.978;2023-04-10T00:20:30;28.63;27.39;29.54;;
67298;Laerm;65443;51.436;5.978;2023-04-10T00:20:41;29.11;27.79;31.06;;
67298;Laerm;65443;51.436;5.978;2023-04-10T00:20:52;30.51;29.11;31.96;;
67298;Laerm;65443;51.436;5.978;2023-04-10T00:21:03;30.87;29.51;33.89;;
67298;Laerm;65443;51.436;5.978;2023-04-10T00:21:13;30.36;28.50;32.35;;
67298;Laerm;65443;51.436;5.978;2023-04-10T00:21:23;34.42;31.55;37.19;;
67298;Laerm;65443;51.436;5.978;2023-04-10T00:21:33;40.66;32.03;49.52;;
67298;Laerm;65443;51.436;5.978;2023-04-10T00:21:44;43.09;31.86;47.90;;
67298;Laerm;65443;51.436;5.978;2023-04-10T00:21:54;30.46;28.38;33.52;;
67298;Laerm;65443;51.436;5.978;2023-04-10T00:22:04;29.10;27.92;30.36;;
67298;Laerm;65443;51.436;5.978;2023-04-10T00:22:15;28.85;27.61;30.01;;
67298;Laerm;65443;51.436;5.978;2023-04-10T00:22:25;28.86;27.71;31.68;;
67298;Laerm;65443;51.436;5.978;2023-04-10T00:22:35;28.81;27.45;30.20;;
67298;Laerm;65443;51.436;5.978;2023-04-10T00:22:46;28.81;27.61;29.74;;
67298;Laerm;65443;51.436;5.978;2023-04-10T00:22:56;28.69;27.36;29.68;;
67298;Laerm;65443;51.436;5.978;2023-04-10T00:23:06;28.74;27.58;30.18;;
67298;Laerm;65443;51.436;5.978;2023-04-10T00:23:17;28.69;27.63;29.70;;
67298;Laerm;65443;51.436;5.978;2023-04-10T00:23:27;28.76;27.73;30.60;;
67298;Laerm;65443;51.436;5.978;2023-04-10T00:23:37;28.86;27.78;30.05;;
67298;Laerm;65443;51.436;5.978;2023-04-10T00:23:47;28.90;27.59;30.38;;
67298;Laerm;65443;51.436;5.978;2023-04-10T00:23:58;29.04;27.93;30.96;;
67298;Laerm;65443;51.436;5.978;2023-04-10T00:24:08;28.98;27.68;30.29;;
67298;Laerm;65443;51.436;5.978;2023-04-10T00:24:18;28.78;27.63;29.86;;
67298;Laerm;65443;51.436;5.978;2023-04-10T00:24:29;28.92;27.63;30.43;;
67298;Laerm;65443;51.436;5.978;2023-04-10T00:24:39;29.08;27.59;33.66;;
67298;Laerm;65443;51.436;5.978;2023-04-10T00:24:49;29.39;27.99;31.11;;
67298;Laerm;65443;51.436;5.978;2023-04-10T00:25:00;35.07;28.61;45.18;;
67298;Laerm;65443;51.436;5.978;2023-04-10T00:25:10;37.08;28.84;45.99;;
67298;Laerm;65443;51.436;5.978;2023-04-10T00:25:20;29.04;27.78;31.64;;
67298;Laerm;65443;51.436;5.978;2023-04-10T00:25:32;28.71;27.63;30.06;;
67298;Laerm;65443;51.436;5.978;2023-04-10T00:25:42;28.62;26.98;29.62;;
67298;Laerm;65443;51.436;5.978;2023-04-10T00:25:52;29.08;28.00;30.07;;
67298;Laerm;65443;51.436;5.978;2023-04-10T00:26:02;29.00;27.90;30.35;;
67298;Laerm;65443;51.436;5.978;2023-04-10T00:26:13;28.91;27.53;30.47;;
67298;Laerm;65443;51.436;5.978;2023-04-10T00:26:23;28.70;27.48;30.04;;
67298;Laerm;65443;51.436;5.978;2023-04-10T00:26:35;28.47;27.52;29.49;;
67298;Laerm;65443;51.436;5.978;2023-04-10T00:26:45;28.72;27.61;29.68;;
67298;Laerm;65443;51.436;5.978;2023-04-10T00:26:56;28.85;27.48;30.28;;
67298;Laerm;65443;51.436;5.978;2023-04-10T00:27:06;28.86;27.75;30.04;;
67298;Laerm;65443;51.436;5.978;2023-04-10T00:27:17;29.05;27.76;30.57;;
67298;Laerm;65443;51.436;5.978;2023-04-10T00:27:27;28.62;27.63;29.81;;
67298;Laerm;65443;51.436;5.978;2023-04-10T00:27:37;28.69;27.38;29.93;;
67298;Laerm;65443;51.436;5.978;2023-04-10T00:27:47;28.56;27.32;29.62;;
67298;Laerm;65443;51.436;5.978;2023-04-10T00:27:58;28.65;27.46;29.53;;
67298;Laerm;65443;51.436;5.978;2023-04-10T00:28:08;28.99;27.63;36.75;;
67298;Laerm;65443;51.436;5.978;2023-04-10T00:28:18;28.70;27.25;30.13;;
67298;Laerm;65443;51.436;5.978;2023-04-10T00:28:29;28.78;27.65;29.89;;
67298;Laerm;65443;51.436;5.978;2023-04-10T00:28:39;28.76;27.69;29.79;;
67298;Laerm;65443;51.436;5.978;2023-04-10T00:28:49;28.82;27.83;30.00;;
67298;Laerm;65443;51.436;5.978;2023-04-10T00:29:00;28.75;27.39;29.90;;
67298;Laerm;65443;51.436;5.978;2023-04-10T00:29:11;28.70;27.69;30.18;;
67298;Laerm;65443;51.436;5.978;2023-04-10T00:29:22;28.66;27.07;29.81;;
67298;Laerm;65443;51.436;5.978;2023-04-10T00:29:32;28.63;27.47;29.76;;
67298;Laerm;65443;51.436;5.978;2023-04-10T00:29:42;29.78;27.91;31.48;;
67298;Laerm;65443;51.436;5.978;2023-04-10T00:29:53;29.33;28.06;30.96;;
67298;Laerm;65443;51.436;5.978;2023-04-10T00:30:03;29.75;28.05;32.94;;
67298;Laerm;65443;51.436;5.978;2023-04-10T00:30:13;36.13;30.53;41.81;;
67298;Laerm;65443;51.436;5.978;2023-04-10T00:30:24;33.19;29.63;39.36;;
67298;Laerm;65443;51.436;5.978;2023-04-10T00:30:35;62.52;38.76;73.51;;
67298;Laerm;65443;51.436;5.978;2023-04-10T00:30:45;38.33;31.56;45.16;;
67298;Laerm;65443;51.436;5.978;2023-04-10T00:30:55;33.50;31.49;35.13;;
67298;Laerm;65443;51.436;5.978;2023-04-10T00:31:06;56.55;31.22;74.37;;
67298;Laerm;65443;51.436;5.978;2023-04-10T00:31:16;33.26;30.04;41.68;;
67298;Laerm;65443;51.436;5.978;2023-04-10T00:31:26;29.37;28.07;31.01;;
67298;Laerm;65443;51.436;5.978;2023-04-10T00:31:37;28.78;27.19;31.27;;
67298;Laerm;65443;51.436;5.978;2023-04-10T00:31:47;29.06;27.88;32.38;;
67298;Laerm;65443;51.436;5.978;2023-04-10T00:31:58;29.27;27.71;31.65;;
67298;Laerm;65443;51.436;5.978;2023-04-10T00:32:08;31.21;28.55;39.37;;
67298;Laerm;65443;51.436;5.978;2023-04-10T00:32:18;31.18;29.03;36.13;;
67298;Laerm;65443;51.436;5.978;2023-04-10T00:32:28;30.11;28.80;32.45;;
67298;Laerm;65443;51.436;5.978;2023-04-10T00:32:39;33.75;28.54;39.45;;
67298;Laerm;65443;51.436;5.978;2023-04-10T00:32:50;39.79;28.90;49.64;;
67298;Laerm;65443;51.436;5.978;2023-04-10T00:33:00;28.94;27.83;30.47;;
67298;Laerm;65443;51.436;5.978;2023-04-10T00:33:11;28.89;27.73;30.23;;
67298;Laerm;65443;51.436;5.978;2023-04-10T00:33:21;28.78;27.72;30.19;;
67298;Laerm;65443;51.436;5.978;2023-04-10T00:33:31;28.83;27.50;29.88;;
67298;Laerm;65443;51.436;5.978;2023-04-10T00:33:41;28.84;27.71;30.03;;
67298;Laerm;65443;51.436;5.978;2023-04-10T00:33:52;28.90;27.76;32.28;;
67298;Laerm;65443;51.436;5.978;2023-04-10T00:34:02;28.76;27.60;30.42;;
67298;Laerm;65443;51.436;5.978;2023-04-10T00:34:12;28.65;27.45;29.96;;
67298;Laerm;65443;51.436;5.978;2023-04-10T00:34:23;28.67;27.66;30.01;;
67298;Laerm;65443;51.436;5.978;2023-04-10T00:34:33;28.63;26.95;29.64;;
67298;Laerm;65443;51.436;5.978;2023-04-10T00:34:43;28.61;27.40;29.64;;
67298;Laerm;65443;51.436;5.978;2023-04-10T00:34:54;28.52;27.51;29.59;;
67298;Laerm;65443;51.436;5.978;2023-04-10T00:35:06;28.56;27.49;29.71;;
67298;Laerm;65443;51.436;5.978;2023-04-10T00:35:16;28.58;27.21;30.52;;
67298;Laerm;65443;51.436;5.978;2023-04-10T00:35:26;28.58;27.33;30.63;;
67298;Laerm;65443;51.436;5.978;2023-04-10T00:35:37;28.63;27.43;29.57;;
67298;Laerm;65443;51.436;5.978;2023-04-10T00:35:47;28.60;27.56;29.82;;
67298;Laerm;65443;51.436;5.978;2023-04-10T00:35:57;28.51;27.41;29.95;;
67298;Laerm;65443;51.436;5.978;2023-04-10T00:36:08;28.70;27.43;34.20;;
67298;Laerm;65443;51.436;5.978;2023-04-10T00:36:18;28.76;27.38;29.78;;
67298;Laerm;65443;51.436;5.978;2023-04-10T00:36:29;35.88;27.55;46.86;;
67298;Laerm;65443;51.436;5.978;2023-04-10T00:36:40;36.63;30.89;44.08;;
67298;Laerm;65443;51.436;5.978;2023-04-10T00:36:51;30.40;27.96;38.43;;
67298;Laerm;65443;51.436;5.978;2023-04-10T00:37:01;28.92;27.43;30.18;;
67298;Laerm;65443;51.436;5.978;2023-04-10T00:37:11;28.95;27.64;30.95;;
67298;Laerm;65443;51.436;5.978;2023-04-10T00:37:22;28.92;27.87;30.00;;
67298;Laerm;65443;51.436;5.978;2023-04-10T00:37:32;28.86;27.46;30.00;;
67298;Laerm;65443;51.436;5.978;2023-04-10T00:37:42;30.61;27.96;32.57;;
67298;Laerm;65443;51.436;5.978;2023-04-10T00:37:53;30.59;29.20;32.27;;
67298;Laerm;65443;51.436;5.978;2023-04-10T00:38:05;30.33;27.84;31.92;;
67298;Laerm;65443;51.436;5.978;2023-04-10T00:38:15;29.22;27.66;30.44;;
67298;Laerm;65443;51.436;5.978;2023-04-10T00:38:26;29.23;27.79;30.37;;
67298;Laerm;65443;51.436;5.978;2023-04-10T00:38:36;29.73;27.74;32.58;;
67298;Laerm;65443;51.436;5.978;2023-04-10T00:38:47;31.14;29.06;33.94;;
67298;Laerm;65443;51.436;5.978;2023-04-10T00:38:58;32.90;30.38;37.63;;
67298;Laerm;65443;51.436;5.978;2023-04-10T00:39:09;38.57;34.45;41.50;;
67298;Laerm;65443;51.436;5.978;2023-04-10T00:39:19;41.37;38.78;45.24;;
67298;Laerm;65443;51.436;5.978;2023-04-10T00:39:30;52.18;44.50;58.06;;
67298;Laerm;65443;51.436;5.978;2023-04-10T00:39:40;66.89;49.75;74.71;;
67298;Laerm;65443;51.436;5.978;2023-04-10T00:39:50;49.62;33.32;58.57;;
67298;Laerm;65443;51.436;5.978;2023-04-10T00:40:00;38.85;32.75;43.47;;
67298;Laerm;65443;51.436;5.978;2023-04-10T00:40:11;33.86;30.99;35.55;;
67298;Laerm;65443;51.436;5.978;2023-04-10T00:40:21;30.24;28.65;32.47;;
67298;Laerm;65443;51.436;5.978;2023-04-10T00:40:32;29.30;28.04;31.11;;
67298;Laerm;65443;51.436;5.978;2023-04-10T00:40:42;29.20;27.88;30.81;;
67298;Laerm;65443;51.436;5.978;2023-04-10T00:40:53;29.33;27.89;31.07;;
67298;Laerm;65443;51.436;5.978;2023-04-10T00:41:03;29.12;27.90;30.15;;
67298;Laerm;65443;51.436;5.978;2023-04-10T00:41:14;29.64;27.75;31.35;;
67298;Laerm;65443;51.436;5.978;2023-04-10T00:41:24;30.54;28.37;34.42;;
67298;Laerm;65443;51.436;5.978;2023-04-10T00:41:34;29.40;28.11;31.11;;
67298;Laerm;65443;51.436;5.978;2023-04-10T00:41:45;28.71;27.58;29.69;;
67298;Laerm;65443;51.436;5.978;2023-04-10T00:41:55;28.99;27.10;29.93;;
67298;Laerm;65443;51.436;5.978;2023-04-10T00:42:06;28.84;27.97;30.24;;
67298;Laerm;65443;51.436;5.978;2023-04-10T00:42:19;28.71;27.61;29.88;;
67298;Laerm;65443;51.436;5.978;2023-04-10T00:42:29;28.51;27.26;29.69;;
67298;Laerm;65443;51.436;5.978;2023-04-10T00:42:39;28.51;27.40;29.52;;
67298;Laerm;65443;51.436;5.978;2023-04-10T00:42:50;28.46;27.35;29.48;;
67298;Laerm;65443;51.436;5.978;2023-04-10T00:43:00;28.51;27.63;29.76;;
67298;Laerm;65443;51.436;5.978;2023-04-10T00:43:10;28.62;27.58;30.64;;
67298;Laerm;65443;51.436;5.978;2023-04-10T00:43:20;30.20;27.56;36.23;;
67298;Laerm;65443;51.436;5.978;2023-04-10T00:43:31;28.59;27.66;30.06;;
67298;Laerm;65443;51.436;5.978;2023-04-10T00:43:42;28.58;27.58;29.63;;
67298;Laerm;65443;51.436;5.978;2023-04-10T00:43:55;28.53;27.08;29.72;;
67298;Laerm;65443;51.436;5.978;2023-04-10T00:44:06;28.50;27.43;29.71;;
67298;Laerm;65443;51.436;5.978;2023-04-10T00:44:17;31.93;27.52;50.11;;
67298;Laerm;65443;51.436;5.978;2023-04-10T00:44:27;28.70;27.65;30.35;;
67298;Laerm;65443;51.436;5.978;2023-04-10T00:44:38;29.48;27.65;46.64;;
67298;Laerm;65443;51.436;5.978;2023-04-10T00:44:48;29.01;27.47;41.16;;
67298;Laerm;65443;51.436;5.978;2023-04-10T00:44:59;28.60;27.48;29.53;;
67298;Laerm;65443;51.436;5.978;2023-04-10T00:45:09;28.55;27.21;29.69;;
67298;Laerm;65443;51.436;5.978;2023-04-10T00:45:19;28.56;27.28;29.50;;
67298;Laerm;65443;51.436;5.978;2023-04-10T00:45:30;28.49;27.07;29.45;;
67298;Laerm;65443;51.436;5.978;2023-04-10T00:45:40;28.58;27.60;30.26;;
67298;Laerm;65443;51.436;5.978;2023-04-10T00:45:50;28.75;27.65;29.85;;
67298;Laerm;65443;51.436;5.978;2023-04-10T00:46:01;28.58;27.41;30.01;;
67298;Laerm;65443;51.436;5.978;2023-04-10T00:46:11;28.52;27.57;29.69;;
67298;Laerm;65443;51.436;5.978;2023-04-10T00:46:22;28.47;27.55;29.90;;
67298;Laerm;65443;51.436;5.978;2023-04-10T00:46:33;28.50;27.54;29.83;;
67298;Laerm;65443;51.436;5.978;2023-04-10T00:46:44;28.58;27.50;29.57;;
67298;Laerm;65443;51.436;5.978;2023-04-10T00:46:54;28.73;27.22;29.91;;
67298;Laerm;65443;51.436;5.978;2023-04-10T00:47:05;28.68;27.65;29.87;;
67298;Laerm;65443;51.436;5.978;2023-04-10T00:47:16;28.60;27.50;29.48;;
67298;Laerm;65443;51.436;5.978;2023-04-10T00:47:27;28.54;27.53;29.57;;
67298;Laerm;65443;51.436;5.978;2023-04-10T00:47:37;28.53;27.33;29.54;;
67298;Laerm;65443;51.436;5.978;2023-04-10T00:47:47;28.77;27.32;29.73;;
67298;Laerm;65443;51.436;5.978;2023-04-10T00:47:58;28.76;27.45;29.95;;
67298;Laerm;65443;51.436;5.978;2023-04-10T00:48:08;28.57;27.35;29.61;;
67298;Laerm;65443;51.436;5.978;2023-04-10T00:48:19;28.57;27.40;29.50;;
67298;Laerm;65443;51.436;5.978;2023-04-10T00:48:29;28.68;27.50;29.88;;
67298;Laerm;65443;51.436;5.978;2023-04-10T00:48:40;28.60;27.59;30.03;;
67298;Laerm;65443;51.436;5.978;2023-04-10T00:48:50;28.59;27.57;29.77;;
67298;Laerm;65443;51.436;5.978;2023-04-10T00:49:01;28.67;27.60;29.80;;
67298;Laerm;65443;51.436;5.978;2023-04-10T00:49:12;28.69;27.63;29.77;;
67298;Laerm;65443;51.436;5.978;2023-04-10T00:49:22;28.67;27.36;30.10;;
67298;Laerm;65443;51.436;5.978;2023-04-10T00:49:33;28.70;27.61;29.85;;
67298;Laerm;65443;51.436;5.978;2023-04-10T00:49:43;28.66;27.64;30.20;;
67298;Laerm;65443;51.436;5.978;2023-04-10T00:49:54;28.61;27.41;29.58;;
67298;Laerm;65443;51.436;5.978;2023-04-10T00:50:05;28.57;27.61;29.67;;
67298;Laerm;65443;51.436;5.978;2023-04-10T00:50:15;28.67;27.53;30.84;;
67298;Laerm;65443;51.436;5.978;2023-04-10T00:50:25;28.70;27.69;30.05;;
67298;Laerm;65443;51.436;5.978;2023-04-10T00:50:36;28.74;27.60;30.20;;
67298;Laerm;65443;51.436;5.978;2023-04-10T00:50:46;28.67;27.59;29.82;;
67298;Laerm;65443;51.436;5.978;2023-04-10T00:50:57;28.61;27.54;29.70;;
67298;Laerm;65443;51.436;5.978;2023-04-10T00:51:07;28.73;27.53;29.77;;
67298;Laerm;65443;51.436;5.978;2023-04-10T00:51:18;28.79;27.44;30.11;;
67298;Laerm;65443;51.436;5.978;2023-04-10T00:51:29;28.64;27.20;29.92;;
67298;Laerm;65443;51.436;5.978;2023-04-10T00:51:40;28.64;27.64;29.90;;
67298;Laerm;65443;51.436;5.978;2023-04-10T00:51:51;28.81;27.38;30.27;;
67298;Laerm;65443;51.436;5.978;2023-04-10T00:52:01;28.70;27.24;29.80;;
67298;Laerm;65443;51.436;5.978;2023-04-10T00:52:12;28.69;27.76;29.67;;
67298;Laerm;65443;51.436;5.978;2023-04-10T00:52:23;28.67;27.48;29.95;;
67298;Laerm;65443;51.436;5.978;2023-04-10T00:52:35;28.84;27.49;30.07;;
67298;Laerm;65443;51.436;5.978;2023-04-10T00:52:45;28.73;27.50;29.78;;
67298;Laerm;65443;51.436;5.978;2023-04-10T00:52:57;28.64;27.51;29.73;;
67298;Laerm;65443;51.436;5.978;2023-04-10T00:53:07;28.54;27.34;29.79;;
67298;Laerm;65443;51.436;5.978;2023-04-10T00:53:18;28.64;27.26;29.67;;
67298;Laerm;65443;51.436;5.978;2023-04-10T00:53:28;28.66;27.53;29.58;;
67298;Laerm;65443;51.436;5.978;2023-04-10T00:53:38;28.63;27.59;29.56;;
67298;Laerm;65443;51.436;5.978;2023-04-10T00:53:49;28.53;27.29;29.46;;
67298;Laerm;65443;51.436;5.978;2023-04-10T00:54:03;28.56;27.43;29.51;;
67298;Laerm;65443;51.436;5.978;2023-04-10T00:54:15;28.61;27.68;29.53;;
67298;Laerm;65443;51.436;5.978;2023-04-10T00:54:25;29.28;27.40;30.68;;
67298;Laerm;65443;51.436;5.978;2023-04-10T00:54:36;29.81;28.52;30.74;;
67298;Laerm;65443;51.436;5.978;2023-04-10T00:54:46;29.88;28.84;30.85;;
67298;Laerm;65443;51.436;5.978;2023-04-10T00:54:57;28.74;27.44;30.75;;
67298;Laerm;65443;51.436;5.978;2023-04-10T00:55:07;28.65;27.39;29.73;;
67298;Laerm;65443;51.436;5.978;2023-04-10T00:55:18;28.69;27.83;29.60;;
67298;Laerm;65443;51.436;5.978;2023-04-10T00:55:29;28.51;27.30;30.38;;
67298;Laerm;65443;51.436;5.978;2023-04-10T00:55:39;28.74;27.63;29.88;;
67298;Laerm;65443;51.436;5.978;2023-04-10T00:55:49;28.72;27.45;29.77;;
67298;Laerm;65443;51.436;5.978;2023-04-10T00:56:00;28.73;27.47;29.97;;
67298;Laerm;65443;51.436;5.978;2023-04-10T00:56:11;28.60;27.55;29.73;;
67298;Laerm;65443;51.436;5.978;2023-04-10T00:56:23;28.57;27.46;29.65;;
67298;Laerm;65443;51.436;5.978;2023-04-10T00:56:33;28.50;27.58;29.49;;
67298;Laerm;65443;51.436;5.978;2023-04-10T00:56:44;28.55;27.34;29.52;;
67298;Laerm;65443;51.436;5.978;2023-04-10T00:56:56;28.54;27.25;29.67;;
67298;Laerm;65443;51.436;5.978;2023-04-10T00:57:07;28.55;27.57;29.71;;
67298;Laerm;65443;51.436;5.978;2023-04-10T00:57:17;28.63;27.55;29.72;;
67298;Laerm;65443;51.436;5.978;2023-04-10T00:57:28;28.69;27.40;29.71;;
67298;Laerm;65443;51.436;5.978;2023-04-10T00:57:38;28.78;27.85;29.97;;
67298;Laerm;65443;51.436;5.978;2023-04-10T00:57:53;29.21;27.99;32.69;;
67298;Laerm;65443;51.436;5.978;2023-04-10T00:58:04;29.16;27.97;30.38;;
67298;Laerm;65443;51.436;5.978;2023-04-10T00:58:14;28.85;27.70;29.95;;
67298;Laerm;65443;51.436;5.978;2023-04-10T00:58:25;28.83;27.62;29.86;;
67298;Laerm;65443;51.436;5.978;2023-04-10T00:58:35;28.80;27.69;30.06;;
67298;Laerm;65443;51.436;5.978;2023-04-10T00:58:46;28.80;27.76;29.91;;
67298;Laerm;65443;51.436;5.978;2023-04-10T00:58:56;28.60;27.48;29.54;;
67298;Laerm;65443;51.436;5.978;2023-04-10T00:59:07;28.62;27.70;29.59;;
67298;Laerm;65443;51.436;5.978;2023-04-10T00:59:17;28.61;27.56;29.62;;
67298;Laerm;65443;51.436;5.978;2023-04-10T00:59:28;28.64;27.66;29.83;;